createdAt,value
2023-05-19T00:04:18.854Z,74.71
2023-05-19T00:09:22.853Z,74.73
2023-05-19T00:14:26.760Z,75.17
2023-05-19T00:19:32.557Z,77.21
2023-05-19T00:24:36.292Z,76.61
2023-05-19T00:29:39.905Z,76.14
2023-05-19T00:34:44.796Z,76.69
2023-05-19T00:39:48.193Z,76.41
2023-05-19T00:44:52.100Z,77.04
2023-05-19T00:49:57.025Z,77.32
2023-05-19T00:55:01.394Z,77.25
2023-05-19T01:00:08.502Z,77.86
2023-05-19T01:05:14.612Z,78.27
2023-05-19T01:10:18.030Z,77.42
2023-05-19T01:15:21.703Z,77.72
2023-05-19T01:20:34.776Z,77.30
2023-05-19T01:26:11.350Z,77.63
2023-05-19T01:31:18.555Z,77.22
2023-05-19T01:36:24.482Z,77.17
2023-05-19T01:41:29.679Z,76.62
2023-05-19T01:46:35.045Z,77.19
2023-05-19T01:51:38.631Z,77.05
2023-05-19T01:56:48.309Z,77.68
2023-05-19T02:01:56.050Z,78.12
2023-05-19T02:07:05.120Z,78.23
2023-05-19T02:12:15.752Z,77.92
2023-05-19T02:17:22.292Z,78.74
2023-05-19T02:22:26.305Z,78.85
2023-05-19T02:27:30.157Z,78.61
2023-05-19T02:32:35.249Z,78.88
2023-05-19T02:37:38.916Z,78.54
2023-05-19T02:42:42.529Z,78.33
2023-05-19T02:47:47.389Z,78.14
2023-05-19T02:52:52.661Z,77.73
2023-05-19T02:57:56.178Z,77.16
2023-05-19T03:03:04.731Z,76.90
2023-05-19T03:08:08.541Z,75.80
2023-05-19T03:13:11.961Z,75.74
2023-05-19T03:18:16.856Z,75.03
2023-05-19T03:23:20.565Z,74.76
2023-05-19T03:28:24.251Z,75.26
2023-05-19T03:33:30.143Z,75.55
2023-05-19T03:38:33.567Z,76.09
2023-05-19T03:43:37.052Z,75.65
2023-05-19T03:48:42.091Z,75.39
2023-05-19T03:53:45.849Z,75.90
2023-05-19T03:58:49.974Z,75.88
2023-05-19T04:03:54.858Z,75.55
2023-05-19T04:08:58.392Z,75.48
2023-05-19T04:14:02.028Z,74.39
2023-05-19T04:19:07.106Z,71.71
2023-05-19T04:24:10.826Z,69.96
2023-05-19T04:29:18.495Z,68.48
2023-05-19T04:34:23.468Z,68.55
2023-05-19T04:39:26.922Z,67.41
2023-05-19T04:44:31.506Z,66.25
2023-05-19T04:49:39.048Z,66.16
2023-05-19T04:54:42.529Z,65.22
2023-05-19T04:59:46.423Z,64.73
2023-05-19T05:04:51.390Z,64.45
2023-05-19T05:09:54.971Z,64.70
2023-05-19T05:14:59.178Z,64.74
2023-05-19T05:20:06.792Z,64.68
2023-05-19T05:25:12.020Z,64.72
2023-05-19T05:30:16.028Z,64.62
2023-05-19T05:35:23.714Z,64.93
2023-05-19T05:40:27.081Z,65.08
2023-05-19T05:45:30.813Z,66.15
2023-05-19T05:50:36.986Z,66.71
2023-05-19T05:55:41.345Z,66.52
2023-05-19T06:00:45.479Z,67.04
2023-05-19T06:05:50.449Z,66.53
2023-05-19T06:10:54.016Z,66.01
2023-05-19T06:15:58.062Z,65.91
2023-05-19T06:21:04.576Z,66.44
2023-05-19T06:26:08.155Z,65.87
2023-05-19T06:31:11.677Z,65.31
2023-05-19T06:36:16.563Z,65.73
2023-05-19T06:41:20.181Z,66.57
2023-05-19T06:46:23.690Z,67.40
2023-05-19T06:51:28.809Z,67.93
2023-05-19T06:56:32.309Z,68.51
2023-05-19T07:01:35.866Z,68.27
2023-05-19T07:06:40.849Z,68.45
2023-05-19T07:11:44.381Z,68.22
2023-05-19T07:16:47.981Z,67.92
2023-05-19T07:21:53.026Z,67.19
2023-05-19T07:26:56.468Z,67.37
2023-05-19T07:32:00.122Z,67.67
2023-05-19T07:37:05.290Z,68.23
2023-05-19T07:42:08.845Z,67.89
2023-05-19T07:47:12.265Z,67.44
2023-05-19T07:52:18.388Z,67.31
2023-05-19T07:57:22.293Z,67.44
2023-05-19T08:02:25.969Z,66.80
2023-05-19T08:07:31.035Z,66.27
2023-05-19T08:12:34.583Z,64.93
2023-05-19T08:17:38.169Z,64.07
2023-05-19T08:22:43.383Z,62.85
2023-05-19T08:27:47.037Z,60.75
2023-05-19T08:32:50.665Z,60.04
2023-05-19T08:37:55.633Z,58.16
2023-05-19T08:42:59.089Z,57.45
2023-05-19T08:48:02.660Z,57.26
2023-05-19T08:53:28.969Z,57.72
2023-05-19T08:58:35.987Z,56.43
2023-05-19T09:03:39.912Z,57.17
2023-05-19T09:08:45.500Z,56.36
2023-05-19T09:13:49.772Z,53.65
2023-05-19T09:18:57.348Z,52.00
2023-05-19T09:24:06.640Z,49.58
2023-05-19T09:29:13.626Z,45.68
2023-05-19T09:34:17.064Z,42.19
2023-05-19T09:39:23.399Z,39.05
2023-05-19T09:44:30.061Z,38.69
2023-05-19T09:49:34.032Z,36.68
2023-05-19T09:54:39.659Z,33.22
2023-05-19T09:59:44.843Z,33.34
2023-05-19T10:04:49.766Z,35.03
2023-05-19T10:09:56.705Z,32.58
2023-05-19T10:15:02.045Z,31.92
2023-05-19T10:20:08.328Z,31.28
2023-05-19T10:25:15.442Z,29.68
2023-05-19T10:30:27.738Z,28.83
2023-05-19T10:35:45.308Z,26.95
2023-05-19T10:41:02.473Z,27.27
2023-05-19T10:46:06.505Z,26.36
2023-05-19T10:51:12.370Z,26.36
2023-05-19T10:56:31.240Z,22.24
2023-05-19T11:01:35.935Z,22.62
2023-05-19T11:06:40.935Z,22.02
2023-05-19T11:11:51.176Z,20.71
2023-05-19T11:16:57.773Z,22.14
2023-05-19T11:22:10.507Z,20.69
2023-05-19T11:27:27.140Z,20.71
2023-05-19T11:32:31.866Z,21.27
2023-05-19T11:37:35.473Z,20.91
2023-05-19T11:42:41.032Z,22.08
2023-05-19T11:48:01.258Z,22.89
2023-05-19T11:53:06.709Z,24.49
2023-05-19T11:58:11.745Z,24.16
2023-05-19T12:03:15.631Z,25.16
2023-05-19T12:08:19.774Z,23.96
2023-05-19T12:13:24.844Z,25.14
2023-05-19T12:18:31.944Z,25.10
2023-05-19T12:23:36.776Z,24.36
2023-05-19T12:28:41.784Z,22.51
2023-05-19T12:33:52.084Z,21.35
2023-05-19T12:38:56.276Z,23.28
2023-05-19T12:44:01.112Z,25.15
2023-05-19T12:49:04.555Z,26.56
2023-05-19T12:54:08.209Z,27.34
2023-05-19T12:59:13.709Z,27.56
2023-05-19T13:04:18.929Z,27.49
2023-05-19T13:09:22.499Z,27.29
2023-05-19T13:14:27.420Z,26.99
2023-05-19T13:19:31.755Z,26.77
2023-05-19T13:24:35.530Z,27.13
2023-05-19T13:29:41.469Z,27.13
2023-05-19T13:34:45.500Z,27.44
2023-05-19T13:39:49.518Z,27.67
2023-05-19T13:44:58.067Z,28.00
2023-05-19T13:50:02.188Z,28.65
2023-05-19T13:55:09.174Z,29.08
2023-05-19T14:00:15.974Z,29.23
2023-05-19T14:05:20.158Z,29.89
2023-05-19T14:10:24.528Z,29.66
2023-05-19T14:15:30.223Z,29.42
2023-05-19T14:20:35.151Z,29.17
2023-05-19T14:25:39.602Z,28.22
2023-05-19T14:30:45.365Z,27.93
2023-05-19T14:35:52.946Z,27.58
2023-05-19T14:40:56.942Z,28.51
2023-05-19T14:46:02.710Z,28.88
2023-05-19T14:51:07.098Z,29.44
2023-05-19T14:56:11.300Z,29.67
2023-05-19T15:01:16.591Z,29.71
2023-05-19T15:06:20.412Z,30.00
2023-05-19T15:11:24.657Z,29.70
2023-05-19T15:16:30.667Z,29.09
2023-05-19T15:21:36.071Z,28.78
2023-05-19T15:26:40.169Z,27.76
2023-05-19T15:31:46.098Z,27.56
2023-05-19T15:36:50.676Z,27.77
2023-05-19T15:41:54.962Z,27.15
2023-05-19T15:47:00.329Z,27.61
2023-05-19T15:52:05.427Z,27.62
2023-05-19T15:57:09.765Z,27.80
2023-05-19T16:02:16.869Z,29.36
2023-05-19T16:07:25.205Z,30.53
2023-05-19T16:12:29.995Z,31.83
2023-05-19T16:17:35.753Z,32.25
2023-05-19T16:22:41.943Z,33.13
2023-05-19T16:27:46.189Z,33.44
2023-05-19T16:32:54.058Z,34.02
2023-05-19T16:37:58.524Z,34.05
2023-05-19T16:43:04.153Z,33.87
2023-05-19T16:48:11.242Z,33.78
2023-05-19T16:53:15.965Z,34.60
2023-05-19T16:58:19.889Z,35.82
2023-05-19T17:03:25.805Z,36.62
2023-05-19T17:08:30.032Z,38.22
2023-05-19T17:13:36.974Z,39.33
2023-05-19T17:18:44.107Z,40.59
2023-05-19T17:23:48.378Z,41.19
2023-05-19T17:28:52.604Z,42.54
2023-05-19T17:34:00.417Z,44.29
2023-05-19T17:39:04.669Z,45.03
2023-05-19T17:44:09.199Z,46.34
2023-05-19T17:49:15.780Z,47.86
2023-05-19T17:54:20.340Z,47.74
2023-05-19T17:59:24.991Z,48.16
2023-05-19T18:04:31.989Z,47.64
2023-05-19T18:09:39.204Z,47.82
2023-05-19T18:14:44.742Z,47.69
2023-05-19T18:19:50.804Z,47.85
2023-05-19T18:24:55.462Z,48.32
2023-05-19T18:30:00.977Z,48.09
2023-05-19T18:35:08.402Z,48.06
2023-05-19T18:40:13.020Z,48.09
2023-05-19T18:45:17.753Z,48.53
2023-05-19T18:50:23.140Z,48.60
2023-05-19T18:55:27.552Z,49.11
2023-05-19T19:00:32.077Z,49.35
2023-05-19T19:05:37.318Z,50.22
2023-05-19T19:10:41.252Z,50.59
2023-05-19T19:15:45.184Z,50.90
2023-05-19T19:20:50.672Z,51.06
2023-05-19T19:25:56.816Z,51.23
2023-05-19T19:31:01.028Z,51.10
2023-05-19T19:36:06.718Z,51.22
2023-05-19T19:41:10.640Z,51.18
2023-05-19T19:46:14.394Z,51.14
2023-05-19T19:51:20.196Z,50.86
2023-05-19T19:56:25.355Z,50.49
2023-05-19T20:01:29.685Z,50.54
2023-05-19T20:06:34.693Z,50.64
2023-05-19T20:11:38.454Z,51.17
2023-05-19T20:16:42.052Z,51.53
2023-05-19T20:21:47.205Z,51.81
2023-05-19T20:26:50.717Z,52.14
2023-05-19T20:31:56.023Z,52.38
2023-05-19T20:37:02.449Z,52.83
2023-05-19T20:42:08.017Z,53.34
2023-05-19T20:47:11.806Z,53.25
2023-05-19T20:52:16.946Z,53.62
2023-05-19T20:57:20.809Z,53.70
2023-05-19T21:02:24.493Z,53.92
2023-05-19T21:07:29.406Z,54.23
2023-05-19T21:12:34.465Z,54.06
2023-05-19T21:17:38.202Z,54.16
2023-05-19T21:22:43.265Z,54.26
2023-05-19T21:27:47.648Z,54.62
2023-05-19T21:32:51.105Z,54.90
2023-05-19T21:37:55.883Z,55.03
2023-05-19T21:42:59.370Z,55.72
2023-05-19T21:48:02.979Z,56.46
2023-05-19T21:53:08.146Z,56.56
2023-05-19T21:58:11.661Z,57.34
2023-05-19T22:03:15.291Z,57.77
2023-05-19T22:08:21.187Z,58.82
2023-05-19T22:13:24.976Z,58.67
2023-05-19T22:18:28.465Z,59.46
2023-05-19T22:23:33.746Z,59.82
2023-05-19T22:28:37.228Z,60.45
2023-05-19T22:33:40.668Z,61.16
2023-05-19T22:38:45.731Z,62.04
2023-05-19T22:43:49.223Z,62.68
2023-05-19T22:48:52.995Z,62.90
2023-05-19T22:53:57.844Z,63.35
2023-05-19T22:59:01.607Z,63.98
2023-05-19T23:04:05.474Z,64.52
2023-05-19T23:09:10.372Z,65.75
2023-05-19T23:14:13.748Z,65.00
2023-05-19T23:19:17.688Z,65.49
2023-05-19T23:24:22.700Z,66.26
2023-05-19T23:29:26.359Z,67.34
2023-05-19T23:34:29.821Z,66.83
2023-05-19T23:39:34.718Z,67.57
2023-05-19T23:44:38.144Z,68.36
2023-05-19T23:49:41.879Z,68.33
2023-05-19T23:54:46.833Z,69.23
2023-05-19T23:59:50.362Z,69.25
